Time;durP1;ratioP1;P1;durP2;ratioP2;P2;SDS_P1;SDS_P2;PMS_P1;PMS_P2;Temp;Humidity;BMP_temperature;BMP_pressure;BME280_temperature;BME280_humidity;BME280_pressure;Samples;Min_cycle;Max_cycle;Signal;HPM_P1;HPM_P2
2023/09/07 00:00:23;;;;;;;3.03;2.72;;;;;;;;;;6184804;23;20170;-94
2023/09/07 00:02:51;;;;;;;3.25;2.50;;;;;;;;;;6184808;23;20143;-94
2023/09/07 00:05:19;;;;;;;3.97;2.30;;;;;;;;;;6184775;23;20151;-95
2023/09/07 00:07:49;;;;;;;3.55;2.70;;;;;;;;;;6184540;23;20152;-95
2023/09/07 00:10:18;;;;;;;2.47;2.28;;;;;;;;;;6184781;23;20170;-94
2023/09/07 00:12:46;;;;;;;1.90;1.80;;;;;;;;;;6184757;23;20151;-94
2023/09/07 00:15:14;;;;;;;2.50;2.30;;;;;;;;;;6184670;23;20160;-95
2023/09/07 00:17:43;;;;;;;2.60;2.40;;;;;;;;;;6184797;23;20170;-95
2023/09/07 00:20:14;;;;;;;2.85;2.60;;;;;;;;;;6184149;23;20195;-96
2023/09/07 00:22:42;;;;;;;3.22;2.92;;;;;;;;;;6184756;23;20210;-95
2023/09/07 00:25:13;;;;;;;3.53;3.10;;;;;;;;;;6184558;23;20147;-94
2023/09/07 00:27:41;;;;;;;3.22;2.38;;;;;;;;;;6184845;23;20167;-95
2023/09/07 00:30:11;;;;;;;2.40;2.20;;;;;;;;;;6184614;23;20170;-95
2023/09/07 00:32:40;;;;;;;8.48;3.78;;;;;;;;;;6184762;23;20147;-95
2023/09/07 00:35:09;;;;;;;3.20;2.33;;;;;;;;;;6184511;23;20190;-95
2023/09/07 00:37:39;;;;;;;2.70;2.50;;;;;;;;;;6183755;23;20146;-95
2023/09/07 00:40:10;;;;;;;2.47;2.28;;;;;;;;;;6184060;23;20151;-96
2023/09/07 00:42:38;;;;;;;2.10;2.00;;;;;;;;;;6184678;23;20152;-95
2023/09/07 00:45:08;;;;;;;2.45;2.25;;;;;;;;;;6184216;23;20155;-94
2023/09/07 00:47:37;;;;;;;2.53;2.33;;;;;;;;;;6184161;23;20178;-95
2023/09/07 00:50:05;;;;;;;2.63;2.47;;;;;;;;;;6184463;23;20148;-95
2023/09/07 00:52:34;;;;;;;2.40;2.20;;;;;;;;;;6184836;23;20163;-95
2023/09/07 00:55:04;;;;;;;3.05;2.13;;;;;;;;;;6184245;23;20185;-94
2023/09/07 00:57:34;;;;;;;2.35;2.15;;;;;;;;;;6184471;23;20151;-94
2023/09/07 01:00:03;;;;;;;2.67;2.47;;;;;;;;;;6184615;23;20171;-95
2023/09/07 01:02:31;;;;;;;2.28;2.08;;;;;;;;;;6184798;23;20171;-95
2023/09/07 01:04:59;;;;;;;2.70;2.40;;;;;;;;;;6184657;23;20167;-96
2023/09/07 01:07:34;;;;;;;2.90;2.60;;;;;;;;;;6184541;23;20156;-96
2023/09/07 01:10:03;;;;;;;2.97;2.78;;;;;;;;;;6184685;23;20146;-95
2023/09/07 01:12:33;;;;;;;2.78;2.30;;;;;;;;;;6184725;23;20148;-96
2023/09/07 01:15:04;;;;;;;2.10;2.00;;;;;;;;;;6184659;23;20219;-95
2023/09/07 01:17:36;;;;;;;3.72;2.30;;;;;;;;;;6184775;23;20211;-96
2023/09/07 01:20:09;;;;;;;3.22;2.28;;;;;;;;;;6184554;23;20153;-94
2023/09/07 01:22:39;;;;;;;3.47;2.40;;;;;;;;;;6184665;23;20152;-95
2023/09/07 01:25:09;;;;;;;2.88;2.67;;;;;;;;;;6184441;23;20147;-95
2023/09/07 01:27:37;;;;;;;3.17;2.40;;;;;;;;;;6184184;23;20152;-95
2023/09/07 01:30:07;;;;;;;2.45;2.08;;;;;;;;;;6184651;23;20174;-95
2023/09/07 01:32:35;;;;;;;3.35;2.53;;;;;;;;;;6186393;23;20152;-95
2023/09/07 01:35:03;;;;;;;2.58;2.15;;;;;;;;;;6185926;23;20203;-95
2023/09/07 01:37:32;;;;;;;2.78;2.58;;;;;;;;;;6186206;23;20219;-96
2023/09/07 01:40:07;;;;;;;4.40;2.80;;;;;;;;;;6185848;23;20199;-96
2023/09/07 01:42:35;;;;;;;2.63;2.42;;;;;;;;;;6186222;23;20151;-95
2023/09/07 01:45:03;;;;;;;2.50;2.30;;;;;;;;;;6185595;23;20155;-95
2023/09/07 01:47:31;;;;;;;2.92;2.20;;;;;;;;;;6186113;23;20167;-94
2023/09/07 01:49:59;;;;;;;2.17;2.03;;;;;;;;;;6185847;23;20158;-95
2023/09/07 01:52:27;;;;;;;2.47;2.28;;;;;;;;;;6186092;23;20152;-94
2023/09/07 01:54:56;;;;;;;2.78;2.58;;;;;;;;;;6185781;23;20175;-94
2023/09/07 01:57:26;;;;;;;2.75;2.55;;;;;;;;;;6186315;23;20147;-94
2023/09/07 01:59:54;;;;;;;2.20;2.10;;;;;;;;;;6186290;23;20147;-94
2023/09/07 02:02:22;;;;;;;2.53;2.33;;;;;;;;;;6186156;23;20198;-93
2023/09/07 02:04:50;;;;;;;2.90;2.70;;;;;;;;;;6185941;23;20207;-94
2023/09/07 02:07:18;;;;;;;2.03;1.92;;;;;;;;;;6186009;23;20156;-95
2023/09/07 02:09:46;;;;;;;2.58;2.28;;;;;;;;;;6185680;23;20167;-95
2023/09/07 02:12:14;;;;;;;3.78;2.40;;;;;;;;;;6185798;23;20151;-94
2023/09/07 02:14:44;;;;;;;2.63;2.22;;;;;;;;;;6185462;23;20185;-95
2023/09/07 02:17:17;;;;;;;2.75;2.55;;;;;;;;;;6185729;23;20179;-95
2023/09/07 02:19:48;;;;;;;2.55;2.35;;;;;;;;;;6185741;23;20158;-95
2023/09/07 02:22:16;;;;;;;3.58;3.33;;;;;;;;;;6185855;23;20158;-96
2023/09/07 02:24:47;;;;;;;2.33;2.13;;;;;;;;;;6185212;23;20167;-94
2023/09/07 02:27:15;;;;;;;2.45;2.25;;;;;;;;;;6185727;23;20148;-95
2023/09/07 02:29:45;;;;;;;2.30;2.10;;;;;;;;;;6184968;23;20148;-95
2023/09/07 02:32:13;;;;;;;2.30;2.20;;;;;;;;;;6185623;23;20150;-95
2023/09/07 02:34:42;;;;;;;2.42;2.22;;;;;;;;;;6185523;23;20172;-95
2023/09/07 02:37:10;;;;;;;2.92;2.58;;;;;;;;;;6185852;23;20163;-96
2023/09/07 02:39:38;;;;;;;2.90;2.67;;;;;;;;;;6185484;23;20166;-95
2023/09/07 02:42:07;;;;;;;2.45;2.25;;;;;;;;;;6185348;23;20151;-95
2023/09/07 02:44:35;;;;;;;2.47;2.28;;;;;;;;;;6185484;23;20152;-95
2023/09/07 02:47:05;;;;;;;2.90;2.33;;;;;;;;;;6185678;23;20154;-95
2023/09/07 02:49:33;;;;;;;3.00;2.70;;;;;;;;;;6185185;23;20147;-95
2023/09/07 02:52:01;;;;;;;3.20;2.90;;;;;;;;;;6185410;23;20179;-95
2023/09/07 02:54:29;;;;;;;2.40;2.20;;;;;;;;;;6185160;23;20175;-95
2023/09/07 02:56:57;;;;;;;2.55;2.38;;;;;;;;;;6185455;23;20148;-94
2023/09/07 02:59:25;;;;;;;2.58;2.38;;;;;;;;;;6185329;23;20171;-95
2023/09/07 03:01:54;;;;;;;2.97;2.50;;;;;;;;;;6184557;23;20170;-95
2023/09/07 03:04:24;;;;;;;3.25;2.55;;;;;;;;;;6185219;23;20162;-95
2023/09/07 03:06:54;;;;;;;3.05;2.80;;;;;;;;;;6184325;23;20143;-93
2023/09/07 03:09:24;;;;;;;3.45;2.67;;;;;;;;;;6158371;23;20155;-94
2023/09/07 03:11:52;;;;;;;2.47;2.28;;;;;;;;;;6183779;23;20151;-94
2023/09/07 03:14:20;;;;;;;2.65;2.45;;;;;;;;;;6183766;23;20156;-95
2023/09/07 03:16:50;;;;;;;2.20;2.00;;;;;;;;;;6183808;23;20152;-96
2023/09/07 03:19:18;;;;;;;4.22;2.55;;;;;;;;;;6183479;23;20167;-95
2023/09/07 03:21:47;;;;;;;2.65;2.45;;;;;;;;;;6183671;23;20151;-94
2023/09/07 03:24:16;;;;;;;3.33;2.78;;;;;;;;;;6183534;23;20151;-94
2023/09/07 03:26:44;;;;;;;2.53;2.33;;;;;;;;;;6183530;23;20148;-94
2023/09/07 03:29:12;;;;;;;3.30;3.00;;;;;;;;;;6183509;23;20167;-95
2023/09/07 03:31:40;;;;;;;3.30;3.00;;;;;;;;;;6183295;23;20151;-94
2023/09/07 03:34:08;;;;;;;3.58;2.70;;;;;;;;;;6183452;23;20151;-96
2023/09/07 03:36:37;;;;;;;2.38;2.17;;;;;;;;;;6183439;23;20206;-95
2023/09/07 03:39:07;;;;;;;3.17;2.42;;;;;;;;;;6183020;23;20152;-95
2023/09/07 03:41:35;;;;;;;2.45;2.25;;;;;;;;;;6183438;23;20213;-94
2023/09/07 03:44:03;;;;;;;2.70;2.50;;;;;;;;;;6183366;23;20168;-95
2023/09/07 03:46:32;;;;;;;3.90;2.65;;;;;;;;;;6183415;23;20158;-95
2023/09/07 03:49:00;;;;;;;2.92;2.63;;;;;;;;;;6183235;23;20151;-94
2023/09/07 03:51:28;;;;;;;2.80;2.47;;;;;;;;;;6183263;23;20151;-95
2023/09/07 03:53:56;;;;;;;5.68;3.10;;;;;;;;;;6182886;23;20152;-95
2023/09/07 03:56:25;;;;;;;2.95;2.65;;;;;;;;;;6183162;23;20384;-94
2023/09/07 03:58:53;;;;;;;2.50;2.30;;;;;;;;;;6183221;23;20151;-96
2023/09/07 04:01:21;;;;;;;2.35;2.20;;;;;;;;;;6183337;23;20159;-94
2023/09/07 04:03:50;;;;;;;3.88;2.72;;;;;;;;;;6183207;23;20179;-95
2023/09/07 04:06:18;;;;;;;2.95;2.50;;;;;;;;;;6183225;23;20182;-95
2023/09/07 04:08:46;;;;;;;3.33;3.08;;;;;;;;;;6182399;23;20152;-95
2023/09/07 04:11:14;;;;;;;2.75;2.55;;;;;;;;;;6182855;23;20151;-96
2023/09/07 04:13:43;;;;;;;2.63;2.42;;;;;;;;;;6182645;23;20175;-95
2023/09/07 04:16:11;;;;;;;2.70;2.50;;;;;;;;;;6182692;23;20167;-94
2023/09/07 04:18:39;;;;;;;2.67;2.47;;;;;;;;;;6182681;23;20151;-95
2023/09/07 04:21:08;;;;;;;2.97;2.42;;;;;;;;;;6182766;23;20152;-94
2023/09/07 04:23:36;;;;;;;2.40;2.20;;;;;;;;;;6182698;23;20152;-95
2023/09/07 04:26:09;;;;;;;2.53;2.28;;;;;;;;;;6183039;23;20159;-93
2023/09/07 04:28:37;;;;;;;3.45;2.97;;;;;;;;;;6183166;23;20151;-95
2023/09/07 04:31:08;;;;;;;3.38;3.08;;;;;;;;;;6183083;23;20175;-95
2023/09/07 04:33:37;;;;;;;2.78;2.58;;;;;;;;;;6182933;23;20151;-96
2023/09/07 04:36:12;;;;;;;2.67;2.45;;;;;;;;;;6182563;23;20163;-95
2023/09/07 04:38:40;;;;;;;2.67;2.42;;;;;;;;;;6182444;23;20150;-95
2023/09/07 04:41:09;;;;;;;2.70;2.50;;;;;;;;;;6182509;23;20151;-94
2023/09/07 04:43:37;;;;;;;2.60;2.40;;;;;;;;;;6182539;23;20152;-94
2023/09/07 04:46:06;;;;;;;3.63;2.45;;;;;;;;;;6176331;23;20263;-94
2023/09/07 04:48:34;;;;;;;3.17;2.50;;;;;;;;;;6179536;23;20160;-94
2023/09/07 04:51:03;;;;;;;3.40;3.10;;;;;;;;;;6180123;23;20148;-93
2023/09/07 04:53:32;;;;;;;2.78;2.55;;;;;;;;;;6180481;23;20208;-94
2023/09/07 04:56:00;;;;;;;2.95;2.75;;;;;;;;;;6179664;23;20191;-94
2023/09/07 04:58:28;;;;;;;2.38;2.17;;;;;;;;;;6179973;23;20171;-94
2023/09/07 05:00:55;;;;;;;3.15;2.33;;;;;;;;;;6179908;23;20178;-94
2023/09/07 05:03:25;;;;;;;3.47;2.60;;;;;;;;;;6179842;23;20148;-94
2023/09/07 05:05:59;;;;;;;10.02;3.45;;;;;;;;;;6181263;23;20171;-95
2023/09/07 05:11:05;;;;;;;2.38;2.28;;;;;;;;;;6181584;23;20201;-94
2023/09/07 05:13:40;;;;;;;3.03;2.20;;;;;;;;;;6181316;23;20190;-94
2023/09/07 05:16:10;;;;;;;4.32;2.72;;;;;;;;;;6186097;23;20301;-94
2023/09/07 05:21:43;;;;;;;3.33;3.00;;;;;;;;;;6244503;22;20138;-95
2023/09/07 05:24:28;;;;;;;2.80;2.60;;;;;;;;;;6245942;23;20146;-95
2023/09/07 05:26:56;;;;;;;4.00;2.95;;;;;;;;;;6246075;23;20201;-95
2023/09/07 05:29:24;;;;;;;2.78;2.58;;;;;;;;;;6245779;23;20173;-96
2023/09/07 05:31:52;;;;;;;3.95;2.40;;;;;;;;;;6246145;23;20150;-96
2023/09/07 05:34:19;;;;;;;2.50;2.30;;;;;;;;;;6245994;23;20153;-95
2023/09/07 05:36:50;;;;;;;4.15;2.72;;;;;;;;;;6245952;23;20162;-95
2023/09/07 05:39:18;;;;;;;2.67;2.47;;;;;;;;;;6245673;23;20146;-95
2023/09/07 05:41:46;;;;;;;4.32;2.40;;;;;;;;;;6245975;23;20154;-96
2023/09/07 05:44:13;;;;;;;2.28;2.08;;;;;;;;;;6245892;23;20150;-93
2023/09/07 05:46:41;;;;;;;2.63;2.42;;;;;;;;;;6246068;23;20153;-95
2023/09/07 05:49:09;;;;;;;2.03;1.92;;;;;;;;;;6245733;23;20157;-94
2023/09/07 05:51:36;;;;;;;1.58;1.48;;;;;;;;;;6245993;23;20146;-93
2023/09/07 05:54:07;;;;;;;2.42;2.20;;;;;;;;;;6246064;23;20181;-96
2023/09/07 05:56:34;;;;;;;5.60;2.67;;;;;;;;;;6245870;23;20165;-95
2023/09/07 05:59:02;;;;;;;1.95;1.83;;;;;;;;;;6245690;23;20153;-95
2023/09/07 06:01:30;;;;;;;1.90;1.80;;;;;;;;;;6245954;23;20157;-95
2023/09/07 06:03:58;;;;;;;2.00;1.90;;;;;;;;;;6246122;23;20154;-94
2023/09/07 06:06:26;;;;;;;2.17;2.00;;;;;;;;;;6245869;23;20142;-95
2023/09/07 06:08:53;;;;;;;1.67;1.58;;;;;;;;;;6245610;23;20149;-95
2023/09/07 06:11:22;;;;;;;2.03;1.83;;;;;;;;;;6245730;23;20173;-95
2023/09/07 06:13:50;;;;;;;2.70;2.50;;;;;;;;;;6245855;23;20150;-94
2023/09/07 06:16:18;;;;;;;1.63;1.52;;;;;;;;;;6245423;23;20146;-95
2023/09/07 06:18:46;;;;;;;1.75;1.65;;;;;;;;;;6245182;23;20154;-94
2023/09/07 06:21:14;;;;;;;4.57;2.40;;;;;;;;;;6245489;23;20168;-96
2023/09/07 06:23:42;;;;;;;2.50;2.30;;;;;;;;;;6245517;23;20142;-94
2023/09/07 06:26:10;;;;;;;1.85;1.75;;;;;;;;;;6245398;23;20146;-94
2023/09/07 06:28:40;;;;;;;1.95;1.85;;;;;;;;;;6245444;23;20162;-95
2023/09/07 06:31:08;;;;;;;2.33;1.75;;;;;;;;;;6245467;23;20142;-95
2023/09/07 06:33:35;;;;;;;2.40;2.20;;;;;;;;;;6245489;23;20153;-96
2023/09/07 06:36:03;;;;;;;2.05;1.95;;;;;;;;;;6245399;23;20150;-95
2023/09/07 06:38:31;;;;;;;2.45;2.25;;;;;;;;;;6245083;23;20174;-93
2023/09/07 06:43:36;;;;;;;2.15;1.98;;;;;;;;;;6214855;23;20182;-93
2023/09/07 06:46:08;;;;;;;1.60;1.50;;;;;;;;;;6188545;23;20152;-93
2023/09/07 06:48:36;;;;;;;1.65;1.55;;;;;;;;;;6184209;23;20143;-93
2023/09/07 06:51:04;;;;;;;1.67;1.58;;;;;;;;;;6184172;23;20166;-91
2023/09/07 06:53:32;;;;;;;3.10;2.90;;;;;;;;;;6183610;23;20155;-93
2023/09/07 06:56:00;;;;;;;1.95;1.77;;;;;;;;;;6183244;23;20179;-95
2023/09/07 06:58:28;;;;;;;2.90;2.35;;;;;;;;;;6183404;23;20195;-94
2023/09/07 07:00:59;;;;;;;2.60;2.40;;;;;;;;;;6183431;23;20182;-94
2023/09/07 07:03:30;;;;;;;2.25;2.05;;;;;;;;;;6183307;23;20167;-91
2023/09/07 07:05:58;;;;;;;2.53;2.35;;;;;;;;;;6182514;23;20230;-93
2023/09/07 07:08:32;;;;;;;2.30;2.17;;;;;;;;;;6182544;23;20159;-94
2023/09/07 07:11:00;;;;;;;2.97;2.75;;;;;;;;;;6182635;23;20155;-94
2023/09/07 07:13:28;;;;;;;3.72;3.17;;;;;;;;;;6182658;23;20155;-93
2023/09/07 07:15:56;;;;;;;3.03;2.83;;;;;;;;;;6183101;23;20206;-94
2023/09/07 07:18:24;;;;;;;3.53;3.22;;;;;;;;;;6182833;23;20197;-94
2023/09/07 07:20:55;;;;;;;2.42;2.30;;;;;;;;;;6183387;23;20154;-93
2023/09/07 07:23:23;;;;;;;2.72;2.53;;;;;;;;;;6183189;23;20179;-93
2023/09/07 07:25:52;;;;;;;2.40;2.20;;;;;;;;;;6183276;23;20186;-94
2023/09/07 07:28:19;;;;;;;2.17;2.08;;;;;;;;;;6182613;23;20163;-94
2023/09/07 07:30:48;;;;;;;1.80;1.70;;;;;;;;;;6183168;23;20171;-95
2023/09/07 07:33:16;;;;;;;1.70;1.60;;;;;;;;;;6182994;23;20154;-94
2023/09/07 07:35:43;;;;;;;3.25;2.95;;;;;;;;;;6182333;23;20258;-95
2023/09/07 07:38:14;;;;;;;2.33;2.13;;;;;;;;;;6183033;23;20206;-94
2023/09/07 07:40:42;;;;;;;1.80;1.70;;;;;;;;;;6183624;23;20154;-92
2023/09/07 07:43:10;;;;;;;1.95;1.85;;;;;;;;;;6184438;23;20199;-95
2023/09/07 07:45:39;;;;;;;2.88;2.67;;;;;;;;;;6183876;23;20178;-96
2023/09/07 07:48:08;;;;;;;2.50;2.33;;;;;;;;;;6183131;23;20168;-95
2023/09/07 07:50:40;;;;;;;1.92;1.83;;;;;;;;;;6184253;23;20170;-93
2023/09/07 07:53:07;;;;;;;1.90;1.80;;;;;;;;;;6183594;23;20147;-91
2023/09/07 07:55:38;;;;;;;2.30;2.10;;;;;;;;;;6182808;23;20175;-93
2023/09/07 07:58:07;;;;;;;6.97;3.83;;;;;;;;;;6182597;23;20229;-93
2023/09/07 08:00:35;;;;;;;2.40;2.20;;;;;;;;;;6182783;23;20163;-93
2023/09/07 08:03:05;;;;;;;2.00;1.90;;;;;;;;;;6183156;23;20159;-93
2023/09/07 08:05:55;;;;;;;3.17;2.95;;;;;;;;;;6182886;23;20167;-92
2023/09/07 08:08:23;;;;;;;2.63;2.35;;;;;;;;;;6182839;23;20174;-94
2023/09/07 08:10:53;;;;;;;4.13;3.05;;;;;;;;;;6182868;23;20187;-93
2023/09/07 08:13:21;;;;;;;2.20;2.10;;;;;;;;;;6182906;23;20154;-93
2023/09/07 08:15:49;;;;;;;2.60;2.35;;;;;;;;;;6182920;23;20175;-93
2023/09/07 08:18:16;;;;;;;1.90;1.80;;;;;;;;;;6182657;23;20349;-94
2023/09/07 08:20:45;;;;;;;2.65;2.25;;;;;;;;;;6182969;23;20148;-93
2023/09/07 08:23:12;;;;;;;1.95;1.75;;;;;;;;;;6183030;23;20159;-94
2023/09/07 08:25:44;;;;;;;2.40;2.20;;;;;;;;;;6182853;23;20183;-93
2023/09/07 08:28:13;;;;;;;2.15;2.05;;;;;;;;;;6182714;23;20166;-94
2023/09/07 08:30:41;;;;;;;3.38;2.38;;;;;;;;;;6182591;23;20154;-94
2023/09/07 08:33:09;;;;;;;2.60;2.40;;;;;;;;;;6182830;23;20163;-94
2023/09/07 08:35:43;;;;;;;2.92;2.72;;;;;;;;;;6183064;23;20182;-94
2023/09/07 08:38:11;;;;;;;2.63;2.42;;;;;;;;;;6182560;23;20178;-94
2023/09/07 08:40:41;;;;;;;2.10;2.00;;;;;;;;;;6183819;23;20151;-92
2023/09/07 08:43:13;;;;;;;2.53;2.33;;;;;;;;;;6185099;23;20183;-93
2023/09/07 08:45:48;;;;;;;2.60;2.40;;;;;;;;;;6185002;23;20210;-94
2023/09/07 08:48:17;;;;;;;2.72;2.53;;;;;;;;;;6184845;23;20166;-94
2023/09/07 08:50:49;;;;;;;3.55;2.40;;;;;;;;;;6184605;23;20152;-94
2023/09/07 08:53:20;;;;;;;2.75;2.55;;;;;;;;;;6185131;23;20167;-96
2023/09/07 08:55:47;;;;;;;1.98;1.88;;;;;;;;;;6184995;23;20187;-93
2023/09/07 08:58:17;;;;;;;2.40;2.28;;;;;;;;;;6184724;23;20183;-93
2023/09/07 09:00:45;;;;;;;2.58;2.38;;;;;;;;;;6184895;23;20151;-93
2023/09/07 09:03:13;;;;;;;2.58;2.38;;;;;;;;;;6184940;23;20340;-91
2023/09/07 09:05:42;;;;;;;2.35;2.15;;;;;;;;;;6184655;23;20221;-91
2023/09/07 09:08:09;;;;;;;2.75;2.55;;;;;;;;;;6184369;23;20167;-90
2023/09/07 09:10:40;;;;;;;2.30;2.10;;;;;;;;;;6184484;23;20168;-90
2023/09/07 09:13:08;;;;;;;2.90;2.70;;;;;;;;;;6184632;23;20170;-92
2023/09/07 09:15:37;;;;;;;3.72;3.42;;;;;;;;;;6184445;23;20186;-92
2023/09/07 09:18:13;;;;;;;2.75;2.55;;;;;;;;;;6184286;23;20162;-92
2023/09/07 09:20:41;;;;;;;2.95;2.75;;;;;;;;;;6184615;23;20159;-93
2023/09/07 09:23:09;;;;;;;3.17;2.97;;;;;;;;;;6184777;23;20194;-90
2023/09/07 09:25:36;;;;;;;2.85;2.65;;;;;;;;;;6184053;23;20242;-93
2023/09/07 09:28:06;;;;;;;2.92;2.72;;;;;;;;;;6179110;23;20167;-91
2023/09/07 09:30:33;;;;;;;2.90;2.70;;;;;;;;;;6184452;23;20159;-92
2023/09/07 09:33:11;;;;;;;2.55;2.35;;;;;;;;;;6184264;23;20186;-90
2023/09/07 09:35:39;;;;;;;3.25;2.35;;;;;;;;;;6184052;23;20246;-92
2023/09/07 09:38:26;;;;;;;2.30;2.20;;;;;;;;;;6184146;23;20162;-92
2023/09/07 09:40:59;;;;;;;2.72;2.53;;;;;;;;;;6184007;23;20174;-90
2023/09/07 09:43:35;;;;;;;2.33;2.13;;;;;;;;;;6184088;23;20178;-92
2023/09/07 09:46:10;;;;;;;3.50;3.28;;;;;;;;;;6184032;23;20169;-92
2023/09/07 09:48:44;;;;;;;3.08;2.88;;;;;;;;;;6183843;23;20158;-91
2023/09/07 09:51:17;;;;;;;2.78;2.58;;;;;;;;;;6184335;23;20151;-93
2023/09/07 09:53:46;;;;;;;2.72;2.53;;;;;;;;;;6184425;23;20210;-92
2023/09/07 09:56:14;;;;;;;2.78;2.58;;;;;;;;;;6184031;23;20179;-94
2023/09/07 09:59:13;;;;;;;2.72;2.53;;;;;;;;;;6184149;23;20173;-92
2023/09/07 10:02:07;;;;;;;2.53;2.33;;;;;;;;;;6183885;23;20163;-93
2023/09/07 10:04:41;;;;;;;2.55;2.35;;;;;;;;;;6183956;23;20178;-92
2023/09/07 10:07:11;;;;;;;3.28;2.97;;;;;;;;;;6183857;23;20177;-92
2023/09/07 10:09:40;;;;;;;3.55;3.15;;;;;;;;;;6183218;23;20179;-93
2023/09/07 10:12:20;;;;;;;3.25;3.05;;;;;;;;;;6182664;23;20178;-94
2023/09/07 10:14:51;;;;;;;2.85;2.65;;;;;;;;;;6174758;23;20178;-91
2023/09/07 10:17:23;;;;;;;5.05;3.30;;;;;;;;;;6180116;23;20176;-93
2023/09/07 10:20:06;;;;;;;4.85;3.13;;;;;;;;;;6182447;23;20182;-90
2023/09/07 10:22:33;;;;;;;2.92;2.72;;;;;;;;;;6184557;23;20163;-88
2023/09/07 10:25:01;;;;;;;3.22;3.03;;;;;;;;;;6183650;23;20171;-91
2023/09/07 10:27:39;;;;;;;3.22;2.92;;;;;;;;;;6183692;23;20178;-91
2023/09/07 10:30:15;;;;;;;2.92;2.72;;;;;;;;;;6183739;23;20183;-92
2023/09/07 10:32:46;;;;;;;3.28;3.08;;;;;;;;;;6183312;23;20151;-93
2023/09/07 10:35:21;;;;;;;2.55;2.40;;;;;;;;;;6184647;23;20167;-94
2023/09/07 10:37:52;;;;;;;3.22;2.92;;;;;;;;;;6184920;23;20186;-92
2023/09/07 10:40:23;;;;;;;2.67;2.47;;;;;;;;;;6184812;23;20170;-95
2023/09/07 10:42:50;;;;;;;2.70;2.50;;;;;;;;;;6184667;23;20173;-94
2023/09/07 10:45:22;;;;;;;2.22;2.13;;;;;;;;;;6182109;23;20195;-93
2023/09/07 10:47:50;;;;;;;3.10;2.90;;;;;;;;;;6183942;23;20147;-94
2023/09/07 10:50:20;;;;;;;3.55;2.88;;;;;;;;;;6183731;23;20147;-92
2023/09/07 10:52:48;;;;;;;3.13;2.92;;;;;;;;;;6183825;23;20154;-91
2023/09/07 10:55:16;;;;;;;3.42;3.13;;;;;;;;;;6183768;23;20178;-92
2023/09/07 10:57:44;;;;;;;3.28;3.03;;;;;;;;;;6183604;23;20161;-94
2023/09/07 11:00:14;;;;;;;3.13;2.90;;;;;;;;;;6183327;23;20186;-92
2023/09/07 11:02:43;;;;;;;3.28;2.97;;;;;;;;;;6183402;23;20147;-94
2023/09/07 11:05:11;;;;;;;3.47;3.25;;;;;;;;;;6183501;23;20186;-93
2023/09/07 11:07:43;;;;;;;2.72;2.53;;;;;;;;;;6183268;23;20167;-92
2023/09/07 11:12:48;;;;;;;2.78;2.58;;;;;;;;;;6179638;23;20209;-94
2023/09/07 11:15:15;;;;;;;2.70;2.50;;;;;;;;;;6183622;23;20237;-94
2023/09/07 11:17:44;;;;;;;3.05;2.53;;;;;;;;;;6183504;23;20175;-93
2023/09/07 11:20:12;;;;;;;3.38;3.08;;;;;;;;;;6182758;23;20218;-95
2023/09/07 11:22:41;;;;;;;2.53;2.42;;;;;;;;;;6180505;23;20183;-95
2023/09/07 11:25:10;;;;;;;3.03;2.80;;;;;;;;;;6184980;23;20151;-95
2023/09/07 11:27:40;;;;;;;2.90;2.70;;;;;;;;;;6185013;23;20147;-95
2023/09/07 11:30:11;;;;;;;5.07;2.80;;;;;;;;;;6184725;23;20143;-95
2023/09/07 11:32:40;;;;;;;3.28;3.08;;;;;;;;;;6185041;23;20158;-95
2023/09/07 11:35:10;;;;;;;2.42;2.33;;;;;;;;;;6184129;23;20165;-95
2023/09/07 11:37:42;;;;;;;2.70;2.50;;;;;;;;;;6184903;23;20158;-94
2023/09/07 11:40:12;;;;;;;3.05;2.85;;;;;;;;;;6184687;23;20155;-94
2023/09/07 11:42:46;;;;;;;5.47;2.90;;;;;;;;;;6184852;23;20151;-95
2023/09/07 11:45:27;;;;;;;3.25;3.00;;;;;;;;;;6184918;23;20151;-95
2023/09/07 11:47:55;;;;;;;3.03;2.83;;;;;;;;;;6184920;23;20147;-95
2023/09/07 11:50:26;;;;;;;3.00;2.60;;;;;;;;;;6184612;23;20153;-94
2023/09/07 11:52:55;;;;;;;2.67;2.47;;;;;;;;;;6184734;23;20147;-95
2023/09/07 11:55:24;;;;;;;2.95;2.70;;;;;;;;;;6184874;23;20151;-95
2023/09/07 11:57:52;;;;;;;3.42;3.03;;;;;;;;;;6184711;23;20150;-92
2023/09/07 12:00:21;;;;;;;2.63;2.53;;;;;;;;;;6184329;23;20222;-92
2023/09/07 12:02:49;;;;;;;3.38;2.55;;;;;;;;;;6184315;23;20174;-95
2023/09/07 12:05:19;;;;;;;3.03;2.83;;;;;;;;;;6184477;23;20155;-95
2023/09/07 12:07:46;;;;;;;3.22;3.03;;;;;;;;;;6184408;23;20142;-92
2023/09/07 12:10:16;;;;;;;3.17;2.97;;;;;;;;;;6184295;23;20154;-94
2023/09/07 12:12:44;;;;;;;2.72;2.53;;;;;;;;;;6184163;23;20151;-94
2023/09/07 12:15:13;;;;;;;3.03;2.83;;;;;;;;;;6184104;23;20157;-92
2023/09/07 12:17:40;;;;;;;2.50;2.30;;;;;;;;;;6184417;23;20154;-93
2023/09/07 12:20:13;;;;;;;2.67;2.47;;;;;;;;;;6184294;23;20166;-94
2023/09/07 12:22:41;;;;;;;3.10;2.90;;;;;;;;;;6184316;23;20154;-93
2023/09/07 12:25:10;;;;;;;2.40;2.25;;;;;;;;;;6184517;23;20147;-94
2023/09/07 12:27:39;;;;;;;3.10;2.90;;;;;;;;;;6184330;23;20172;-93
2023/09/07 12:30:12;;;;;;;3.00;2.80;;;;;;;;;;6184374;23;20158;-94
2023/09/07 12:32:40;;;;;;;2.78;2.55;;;;;;;;;;6184510;23;20150;-93
2023/09/07 12:35:09;;;;;;;2.72;2.53;;;;;;;;;;6184362;23;20155;-94
2023/09/07 12:37:37;;;;;;;2.75;2.55;;;;;;;;;;6184388;23;20142;-93
2023/09/07 12:40:11;;;;;;;3.00;2.80;;;;;;;;;;6184096;23;20153;-92
2023/09/07 12:42:41;;;;;;;3.30;3.10;;;;;;;;;;6184490;23;20179;-94
2023/09/07 12:45:14;;;;;;;3.25;2.95;;;;;;;;;;6184508;23;20151;-94
2023/09/07 12:47:41;;;;;;;3.10;2.90;;;;;;;;;;6184461;23;20154;-93
2023/09/07 12:50:10;;;;;;;2.47;2.28;;;;;;;;;;6184187;23;20147;-93
2023/09/07 12:52:38;;;;;;;2.85;2.65;;;;;;;;;;6184252;23;20155;-93
2023/09/07 12:55:07;;;;;;;2.72;2.53;;;;;;;;;;6184293;23;20170;-93
2023/09/07 12:57:35;;;;;;;3.08;2.88;;;;;;;;;;6184367;23;20151;-94
2023/09/07 13:00:07;;;;;;;2.57;2.30;;;;;;;;;;6184060;23;20154;-93
2023/09/07 13:02:34;;;;;;;2.80;2.60;;;;;;;;;;6184553;23;20143;-93
2023/09/07 13:05:05;;;;;;;3.00;2.80;;;;;;;;;;6184179;23;20151;-94
2023/09/07 13:07:34;;;;;;;2.83;2.53;;;;;;;;;;6184339;23;20147;-91
2023/09/07 13:10:03;;;;;;;2.50;2.33;;;;;;;;;;6184018;23;20158;-94
2023/09/07 13:12:32;;;;;;;2.58;2.42;;;;;;;;;;6184462;23;20199;-93
2023/09/07 13:14:59;;;;;;;2.80;2.60;;;;;;;;;;6184838;23;20150;-92
2023/09/07 13:17:28;;;;;;;2.35;2.25;;;;;;;;;;6184985;23;20184;-94
2023/09/07 13:19:56;;;;;;;2.72;2.35;;;;;;;;;;6184048;23;20147;-93
2023/09/07 13:22:24;;;;;;;2.60;2.40;;;;;;;;;;6183885;23;20159;-94
2023/09/07 13:24:52;;;;;;;3.05;2.80;;;;;;;;;;6183975;23;20150;-94
2023/09/07 13:27:19;;;;;;;3.58;3.38;;;;;;;;;;6185279;23;20147;-94
2023/09/07 13:29:47;;;;;;;3.95;2.30;;;;;;;;;;6185682;23;20147;-94
2023/09/07 13:32:15;;;;;;;2.38;2.28;;;;;;;;;;6185771;23;20151;-94
2023/09/07 13:34:44;;;;;;;3.00;2.80;;;;;;;;;;6185918;23;20150;-92
2023/09/07 13:37:12;;;;;;;2.92;2.72;;;;;;;;;;6186158;23;20150;-92
2023/09/07 13:39:40;;;;;;;4.20;2.90;;;;;;;;;;6185769;23;20147;-94
2023/09/07 13:42:08;;;;;;;2.70;2.50;;;;;;;;;;6185844;23;20167;-93
2023/09/07 13:44:36;;;;;;;3.08;2.88;;;;;;;;;;6185878;23;20147;-94
2023/09/07 13:47:03;;;;;;;2.53;2.42;;;;;;;;;;6185829;23;20147;-92
2023/09/07 13:49:31;;;;;;;2.53;2.38;;;;;;;;;;6185691;23;20147;-92
2023/09/07 13:52:01;;;;;;;2.67;2.47;;;;;;;;;;6185901;23;20166;-94
2023/09/07 13:54:28;;;;;;;3.33;3.03;;;;;;;;;;6185917;23;20155;-94
2023/09/07 13:56:57;;;;;;;2.65;2.45;;;;;;;;;;6185860;23;20154;-92
2023/09/07 13:59:28;;;;;;;3.00;2.80;;;;;;;;;;6185567;23;20155;-95
2023/09/07 14:01:56;;;;;;;2.72;2.53;;;;;;;;;;6185693;23;20182;-93
2023/09/07 14:04:23;;;;;;;3.65;3.10;;;;;;;;;;6185636;23;20154;-93
2023/09/07 14:06:51;;;;;;;2.97;2.65;;;;;;;;;;6185661;23;20147;-94
2023/09/07 14:09:23;;;;;;;2.67;2.47;;;;;;;;;;6185559;23;20395;-93
2023/09/07 14:11:50;;;;;;;3.08;2.88;;;;;;;;;;6185751;23;20148;-92
2023/09/07 14:14:18;;;;;;;2.55;2.35;;;;;;;;;;6185573;23;20154;-92
2023/09/07 14:16:45;;;;;;;2.50;2.30;;;;;;;;;;6185732;23;20155;-94
2023/09/07 14:19:14;;;;;;;7.22;2.95;;;;;;;;;;6185412;23;20147;-93
2023/09/07 14:21:41;;;;;;;2.78;2.58;;;;;;;;;;6185369;23;20160;-95
2023/09/07 14:24:09;;;;;;;2.70;2.50;;;;;;;;;;6185470;23;20151;-94
2023/09/07 14:26:38;;;;;;;4.38;2.53;;;;;;;;;;6185654;23;20147;-92
2023/09/07 14:29:06;;;;;;;2.78;2.58;;;;;;;;;;6185243;23;20147;-95
2023/09/07 14:31:34;;;;;;;2.22;2.05;;;;;;;;;;6185437;23;20147;-96
2023/09/07 14:34:01;;;;;;;3.17;2.88;;;;;;;;;;6185329;23;20151;-92
2023/09/07 14:36:29;;;;;;;2.67;2.47;;;;;;;;;;6185524;23;20181;-92
2023/09/07 14:38:57;;;;;;;2.60;2.40;;;;;;;;;;6184733;23;20147;-93
2023/09/07 14:41:24;;;;;;;2.63;2.42;;;;;;;;;;6185311;23;20159;-93
2023/09/07 14:43:54;;;;;;;2.10;2.00;;;;;;;;;;6185370;23;20147;-93
2023/09/07 14:46:22;;;;;;;2.40;2.30;;;;;;;;;;6185455;23;20158;-93
2023/09/07 14:48:50;;;;;;;2.70;2.50;;;;;;;;;;6185031;23;20147;-92
2023/09/07 14:51:17;;;;;;;2.33;2.10;;;;;;;;;;6185327;23;20151;-95
2023/09/07 14:53:45;;;;;;;2.85;2.55;;;;;;;;;;6185231;23;20150;-94
2023/09/07 14:56:14;;;;;;;2.28;2.15;;;;;;;;;;6185276;23;20154;-92
2023/09/07 14:58:41;;;;;;;2.58;2.38;;;;;;;;;;6184902;23;20143;-93
2023/09/07 15:01:11;;;;;;;2.53;2.33;;;;;;;;;;6185304;23;20207;-93
2023/09/07 15:03:40;;;;;;;2.45;2.35;;;;;;;;;;6185291;23;20157;-93
2023/09/07 15:06:11;;;;;;;2.65;2.55;;;;;;;;;;6185095;23;20151;-93